Latest Coastal Weather Observations for Noarlunga

IDS60701

Issued at 4:11 am CST Sunday 31 July 2016 (issued every 10 minutes, with the page automatically refreshed every 10 minutes)

About coastal observations | Map of coastal stations | Coastal observations for SA | Marine services | Other Formats
Station Details ID: 023885 Name: NOARLUNGA Lat: -35.16 Lon: 138.51 Height: 55.0 m
Data from the previous 72 hours. | See also: Recent months at Noarlunga
Date/Time
CST
Temp
°C
Wind Pressure Rain since
9am
mm
Weather Cloud Vis
km
Sea
Height
m
Swell
Dir  Spd
kts
Gust
kts
hPa Trend Height
m
Period
s
Dir
31/04:00am 11.6 CALM 0 0 - - 2.6 - - - - - - -
31/03:30am 11.6 NW 1 2 - - 2.6 - - - - - - -
31/03:00am 11.9 NW 3 5 - - 2.6 - - - - - - -
31/02:30am 11.9 NW 2 3 - - 2.6 - - - - - - -
31/02:00am 12.1 NW 3 5 - - 2.6 - - - - - - -
31/01:30am 12.4 NW 5 8 - - 2.6 - - - - - - -
31/01:00am 12.8 NW 5 9 - - 2.6 - - - - - - -
31/12:30am 13.1 NW 6 8 - - 2.6 - - - - - - -
31/12:00am 13.3 NNW 7 11 - - 2.6 - - - - - - -
 
Date/Time
CST
Temp
°C
Wind Pressure Rain since
9am
mm
Weather Cloud Vis
km
Sea
Height
m
Swell
Dir  Spd
kts
Gust
kts
hPa Trend Height
m
Period
s
Dir
30/11:30pm 13.6 NNW 7 13 - - 2.6 - - - - - - -
30/11:00pm 13.7 NNW 8 12 - - 2.6 - - - - - - -
30/10:30pm 13.7 N 10 15 - - 2.6 - - - - - - -
30/10:00pm 14.0 N 9 13 - - 2.6 - - - - - - -
30/09:30pm 14.4 N 7 11 - - 2.6 - - - - - - -
30/09:00pm 13.8 NNE 9 12 - - 2.6 - - - - - - -
30/08:30pm 13.6 N 9 12 - - 2.6 - - - - - - -
30/08:00pm 13.4 N 9 15 - - 2.6 - - - - - - -
30/07:30pm 12.9 NNE 10 13 - - 2.6 - - - - - - -
30/07:00pm 12.7 NNE 9 12 - - 2.6 - - - - - - -
30/06:30pm 12.7 N 10 13 - - 2.6 - - - - - - -
30/06:00pm 12.4 N 11 16 - - 2.2 Recent precip. - - - - - -
30/05:30pm 13.0 N 14 19 - - 1.0 - - - - - - -
30/05:00pm 13.7 N 15 19 - - 0.2 - - - - - - -
30/04:30pm 14.7 N 16 23 - - 0.0 - - - - - - -
30/04:00pm 15.4 N 17 26 - - 0.0 - - - - - - -
30/03:30pm 15.5 N 14 21 - - 0.0 - - - - - - -
30/03:00pm 15.4 N 16 22 - - 0.0 - - - - - - -
30/02:30pm 15.5 N 20 27 - - 0.0 - - - - - - -
30/02:08pm 15.5 N 20 30 - - 0.0 - - - - - - -
30/02:00pm 15.5 N 22 29 - - 0.0 - - - - - - -
30/01:35pm 15.4 N 19 29 - - 0.0 - - - - - - -
30/01:30pm 15.4 N 19 28 - - 0.0 - - - - - - -
30/01:00pm 15.2 N 20 30 - - 0.0 - - - - - - -
30/12:38pm 15.5 N 22 33 - - 0.0 - - - - - - -
30/12:30pm 15.6 N 23 33 - - 0.0 - - - - - - -
30/12:01pm 15.2 N 23 34 - - 0.0 - - - - - - -
30/12:00pm 15.1 N 23 31 - - 0.0 - - - - - - -
30/11:35am 15.7 N 23 34 - - 0.0 - - - - - - -
30/11:30am 15.5 N 24 34 - - 0.0 - - - - - - -
30/11:00am 15.7 N 22 33 - - 0.0 - - - - - - -
30/10:30am 14.6 N 20 32 - - 0.0 - - - - - - -
30/10:00am 14.2 N 19 30 - - 0.0 - - - - - - -
30/09:47am 13.9 N 18 29 - - 0.0 - - - - - - -
30/09:30am 13.7 N 19 25 - - 0.0 - - - - - - -
30/09:00am 13.9 N 17 28 - - 0.0 - - - - - - -
30/08:58am 13.9 N 17 28 - - 0.0 - - - - - - -
30/08:30am 13.0 N 16 23 - - 0.0 - - - - - - -
30/08:00am 13.0 N 14 21 - - 0.0 - - - - - - -
30/07:30am 12.7 NNE 12 23 - - 0.0 - - - - - - -
30/07:00am 12.6 NNE 12 17 - - 0.0 - - - - - - -
30/06:30am 12.8 N 13 19 - - 0.0 - - - - - - -
30/06:00am 12.7 NNE 12 18 - - 0.0 - - - - - - -
30/05:30am 12.6 N 12 17 - - 0.0 - - - - - - -
30/05:00am 12.3 N 10 13 - - 0.0 - - - - - - -
30/04:30am 12.2 NNE 9 12 - - 0.0 - - - - - - -
30/04:00am 12.1 NNE 7 10 - - 0.0 - - - - - - -
30/03:30am 12.2 NNE 7 11 - - 0.0 - - - - - - -
30/03:00am 12.3 NNE 7 10 - - 0.0 - - - - - - -
30/02:30am 12.1 NNE 8 12 - - 0.0 - - - - - - -
30/02:00am 12.0 NNE 7 10 - - 0.0 - - - - - - -
30/01:30am 11.7 NNE 7 10 - - 0.0 - - - - - - -
30/01:00am 11.6 NNE 7 11 - - 0.0 - - - - - - -
30/12:30am 11.8 NNE 6 9 - - 0.0 - - - - - - -
30/12:00am 12.2 NNE 8 12 - - 0.0 - - - - - - -
 
Date/Time
CST
Temp
°C
Wind Pressure Rain since
9am
mm
Weather Cloud Vis
km
Sea
Height
m
Swell
Dir  Spd
kts
Gust
kts
hPa Trend Height
m
Period
s
Dir
29/11:30pm 12.4 N 8 12 - - 0.0 - - - - - - -
29/11:00pm 12.5 N 7 10 - - 0.0 - - - - - - -
29/10:30pm 12.5 NNE 6 9 - - 0.0 - - - - - - -
29/10:00pm 12.2 NNE 6 8 - - 0.0 - - - - - - -
29/09:30pm 12.2 NNE 6 8 - - 0.0 - - - - - - -
29/09:00pm 11.9 NNE 6 8 - - 0.0 - - - - - - -
29/08:30pm 11.8 NNE 5 7 - - 0.0 - - - - - - -
29/08:00pm 11.8 NE 6 8 - - 0.0 - - - - - - -
29/07:30pm 11.3 NE 4 5 - - 0.0 - - - - - - -
29/07:00pm 11.1 CALM 0 1 - - 0.0 - - - - - - -
29/06:30pm 11.5 ENE 3 5 - - 0.0 - - - - - - -
29/06:00pm 12.2 NNE 2 3 - - 0.0 - - - - - - -
29/05:30pm 12.3 N 2 2 - - 0.0 - - - - - - -
29/05:00pm 13.2 NNE 5 7 - - 0.0 - - - - - - -
29/04:30pm 13.0 N 5 8 - - 0.0 - - - - - - -
29/04:00pm 13.3 N 6 8 - - 0.0 - - - - - - -
29/03:30pm 14.0 N 6 9 - - 0.0 - - - - - - -
29/03:00pm 13.5 NNW 5 9 - - 0.0 - - - - - - -
29/02:30pm 13.5 NNW 6 9 - - 0.0 - - - - - - -
29/02:00pm 12.9 NNW 5 7 - - 0.0 - - - - - - -
29/01:30pm 12.7 NNW 7 10 - - 0.0 - - - - - - -
29/01:00pm 12.5 NNW 8 11 - - 0.0 - - - - - - -
29/12:30pm 13.0 NNW 9 12 - - 0.0 - - - - - - -
29/12:00pm 13.3 N 8 11 - - 0.0 - - - - - - -
29/11:30am 12.5 N 7 12 - - 0.0 - - - - - - -
29/11:00am 12.3 NNW 6 9 - - 0.0 - - - - - - -
29/10:30am 11.9 N 8 11 - - 0.0 - - - - - - -
29/10:00am 11.2 N 8 12 - - 0.0 - - - - - - -
29/09:30am 10.8 N 7 11 - - 0.0 - - - - - - -
29/09:00am 10.4 N 8 12 - - 0.6 - - - - - - -
29/08:30am 10.1 N 10 14 - - 0.6 - - - - - - -
29/08:00am 9.8 N 6 10 - - 0.6 - - - - - - -
29/07:30am 9.7 N 7 10 - - 0.6 - - - - - - -
29/07:00am 9.6 N 7 11 - - 0.6 - - - - - - -
29/06:30am 9.6 N 6 8 - - 0.6 - - - - - - -
29/06:00am 9.8 N 6 11 - - 0.6 - - - - - - -
29/05:30am 10.0 N 5 8 - - 0.6 - - - - - - -
29/05:00am 10.3 NNW 6 11 - - 0.6 - - - - - - -
29/04:30am 10.3 NNW 7 11 - - 0.6 - - - - - - -
29/04:00am 10.4 NW 7 11 - - 0.6 - - - - - - -
29/03:30am 10.3 NW 8 13 - - 0.4 - - - - - - -
29/03:00am 10.3 NW 9 13 - - 0.2 Recent precip. - - - - - -
29/02:30am 10.5 NNW 9 12 - - 0.0 - - - - - - -
29/02:00am 10.5 NNW 6 10 - - 0.0 - - - - - - -
29/01:30am 10.4 NNW 6 9 - - 0.0 - - - - - - -
29/01:00am 10.1 NNW 7 11 - - 0.0 - - - - - - -
29/12:30am 10.4 NW 8 13 - - 0.0 - - - - - - -
29/12:00am 10.6 NNW 7 10 - - 0.0 - - - - - - -
 
Date/Time
CST
Temp
°C
Wind Pressure Rain since
9am
mm
Weather Cloud Vis
km
Sea
Height
m
Swell
Dir  Spd
kts
Gust
kts
hPa Trend Height
m
Period
s
Dir
28/11:30pm 11.0 NNW 7 10 - - 0.0 - - - - - - -
28/11:00pm 11.2 NNW 7 12 - - 0.0 - - - - - - -
28/10:30pm 11.1 NNW 8 11 - - 0.0 - - - - - - -
28/10:00pm 11.2 N 8 12 - - 0.0 - - - - - - -
28/09:30pm 11.0 N 8 11 - - 0.0 - - - - - - -
28/09:00pm 11.3 NNW 7 10 - - 0.0 - - - - - - -
28/08:30pm 11.4 NNW 7 10 - - 0.0 - - - - - - -
28/08:00pm 11.6 NNW 7 9 - - 0.0 - - - - - - -
28/07:30pm 11.7 WNW 8 13 - - 0.0 - - - - - - -
28/07:00pm 12.0 WNW 8 15 - - 0.0 - - - - - - -
28/06:30pm 11.9 NW 8 13 - - 0.0 - - - - - - -
28/06:00pm 12.1 NW 10 15 - - 0.0 - - - - - - -
28/05:30pm 12.2 NW 8 12 - - 0.0 - - - - - - -
28/05:00pm 12.2 NW 6 9 - - 0.0 - - - - - - -
28/04:30pm 12.7 NW 7 12 - - 0.0 - - - - - - -
28/04:00pm 12.9 NW 7 15 - - 0.0 - - - - - - -
28/03:30pm 12.8 NNW 8 13 - - 0.0 - - - - - - -
28/03:00pm 12.6 N 8 12 - - 0.0 - - - - - - -
28/02:30pm 12.3 N 10 14 - - 0.0 - - - - - - -
28/02:00pm 12.7 NNW 9 13 - - 0.0 - - - - - - -
28/01:30pm 12.5 NNW 9 13 - - 0.0 - - - - - - -
28/01:00pm 12.1 NNW 10 15 - - 0.0 - - - - - - -
28/12:30pm 12.3 NNW 10 13 - - 0.0 - - - - - - -
28/12:00pm 12.8 NNW 7 10 - - 0.0 - - - - - - -
28/11:30am 12.5 NW 8 13 - - 0.0 - - - - - - -
28/11:00am 12.2 NNW 9 12 - - 0.0 - - - - - - -
28/10:30am 12.2 NNW 8 13 - - 0.0 - - - - - - -
28/10:00am 11.9 NNW 8 12 - - 0.0 - - - - - - -
28/09:30am 11.9 NNW 9 12 - - 0.0 - - - - - - -
28/09:00am 11.6 NW 7 12 - - 0.2 - - - - - - -
28/08:30am 11.3 NW 7 10 - - 0.2 - - - - - - -
28/08:00am 11.2 NW 6 10 - - 0.2 - - - - - - -
28/07:30am 11.0 NW 6 10 - - 0.2 - - - - - - -
28/07:00am 10.6 NW 5 9 - - 0.2 - - - - - - -
28/06:30am 10.7 NW 5 10 - - 0.2 - - - - - - -
28/06:00am 10.8 WNW 8 14 - - 0.2 Recent precip. - - - - - -
28/05:30am 10.8 NW 5 9 - - 0.2 - - - - - - -
28/05:00am 10.7 NW 6 9 - - 0.0 - - - - - - -
28/04:30am 10.5 WNW 7 10 - - 0.0 - - - - - - -

Other Formats:

Comma delimited format used in spreadsheet applications
http://www.bom.gov.au/fwo/IDS60701/IDS60701.94808.axf

JavaScript Object Notation format (JSON) in row-major order
http://www.bom.gov.au/fwo/IDS60701/IDS60701.94808.json